createdAt,value
2018-02-06T00:01:58.069Z,78.23
2018-02-06T00:04:25.512Z,78.46
2018-02-06T00:06:53.304Z,78.79
2018-02-06T00:09:20.752Z,79.36
2018-02-06T00:11:48.208Z,78.16
2018-02-06T00:14:15.987Z,77.79
2018-02-06T00:16:43.436Z,77.68
2018-02-06T00:19:10.892Z,77.54
2018-02-06T00:21:38.681Z,77.56
2018-02-06T00:24:06.140Z,78.07
2018-02-06T00:26:33.592Z,77.91
2018-02-06T00:29:01.373Z,77.01
2018-02-06T00:31:28.829Z,76.83
2018-02-06T00:33:56.286Z,77.13
2018-02-06T00:36:24.033Z,77.45
2018-02-06T00:38:51.485Z,77.23
2018-02-06T00:41:18.937Z,77.15
2018-02-06T00:43:46.737Z,76.33
2018-02-06T00:46:14.181Z,76.54
2018-02-06T00:48:41.632Z,76.72
2018-02-06T00:51:09.429Z,75.92
2018-02-06T00:53:36.885Z,75.87
2018-02-06T00:56:04.352Z,76.67
2018-02-06T00:58:32.720Z,75.89
2018-02-06T01:01:00.176Z,75.49
2018-02-06T01:03:27.633Z,75.71
2018-02-06T01:05:55.412Z,75.72
2018-02-06T01:08:22.865Z,74.95
2018-02-06T01:10:50.322Z,75.03
2018-02-06T01:13:18.414Z,75.03
2018-02-06T01:15:45.865Z,75.65
2018-02-06T01:18:13.323Z,74.70
2018-02-06T01:20:41.104Z,75.26
2018-02-06T01:23:08.569Z,75.07
2018-02-06T01:25:36.023Z,75.37
2018-02-06T01:28:03.830Z,75.26
2018-02-06T01:30:31.280Z,75.40
2018-02-06T01:32:58.724Z,74.31
2018-02-06T01:35:26.481Z,74.83
2018-02-06T01:37:53.937Z,74.89
2018-02-06T01:40:21.400Z,75.11
2018-02-06T01:42:49.151Z,75.21
2018-02-06T01:45:16.606Z,74.36
2018-02-06T01:47:44.057Z,74.54
2018-02-06T01:50:11.849Z,74.88
2018-02-06T01:52:39.302Z,74.85
2018-02-06T01:55:06.762Z,74.91
2018-02-06T01:57:34.589Z,74.14
2018-02-06T02:00:03.000Z,74.24
2018-02-06T02:02:30.465Z,74.44
2018-02-06T02:04:58.445Z,74.54
2018-02-06T02:07:25.984Z,74.23
2018-02-06T02:09:53.444Z,73.66
2018-02-06T02:12:21.445Z,73.51
2018-02-06T02:14:48.917Z,73.35
2018-02-06T02:17:16.373Z,73.81
2018-02-06T02:19:44.120Z,73.04
2018-02-06T02:22:11.580Z,73.29
2018-02-06T02:24:39.041Z,73.42
2018-02-06T02:27:06.812Z,72.93
2018-02-06T02:29:34.270Z,72.90
2018-02-06T02:32:01.721Z,72.63
2018-02-06T02:34:29.505Z,72.88
2018-02-06T02:36:56.960Z,72.78
2018-02-06T02:39:24.416Z,73.40
2018-02-06T04:39:56.403Z,78.07
2018-02-06T04:42:23.861Z,79.16
2018-02-06T04:44:51.304Z,79.76
2018-02-06T04:47:19.104Z,74.99
2018-02-06T04:49:46.562Z,74.95
2018-02-06T04:52:14.022Z,76.01
2018-02-06T04:54:41.797Z,75.84
2018-02-06T04:57:09.269Z,76.57
2018-02-06T04:59:36.733Z,76.04
2018-02-06T05:02:04.436Z,76.39
2018-02-06T05:04:32.341Z,75.85
2018-02-06T05:06:59.809Z,76.18
2018-02-06T05:09:27.461Z,76.75
2018-02-06T05:11:54.920Z,75.80
2018-02-06T05:14:22.376Z,76.19
2018-02-06T05:16:50.155Z,76.15
2018-02-06T05:19:17.624Z,76.82
2018-02-06T05:21:45.076Z,77.69
2018-02-06T05:24:12.848Z,76.77
2018-02-06T05:26:40.310Z,77.20
2018-02-06T05:29:07.784Z,77.30
2018-02-06T05:31:35.532Z,77.00
2018-02-06T05:34:03.000Z,77.14
2018-02-06T05:36:30.458Z,77.97
2018-02-06T05:38:58.220Z,78.25
2018-02-06T05:41:25.680Z,77.92
2018-02-06T05:43:53.138Z,77.65
2018-02-06T05:46:22.129Z,78.26
2018-02-06T05:48:49.597Z,78.04
2018-02-06T05:51:17.054Z,77.34
2018-02-06T05:53:44.820Z,78.33
2018-02-06T05:56:12.406Z,78.32
2018-02-06T05:58:39.873Z,78.75
2018-02-06T06:01:07.597Z,78.38
2018-02-06T06:03:35.069Z,78.61
2018-02-06T06:06:03.435Z,78.95
2018-02-06T06:08:31.161Z,79.12
2018-02-06T06:10:58.628Z,77.77
2018-02-06T06:13:26.080Z,78.75
2018-02-06T06:15:53.803Z,79.00
2018-02-06T06:18:21.309Z,78.54
2018-02-06T06:20:48.779Z,77.68
2018-02-06T06:23:16.528Z,78.41
2018-02-06T06:25:43.991Z,78.08
2018-02-06T06:28:11.457Z,78.57
2018-02-06T06:30:39.189Z,78.17
2018-02-06T06:33:06.660Z,78.46
2018-02-06T06:35:34.140Z,77.80
2018-02-06T06:38:02.175Z,77.70
2018-02-06T06:40:29.640Z,77.47
2018-02-06T06:42:57.102Z,78.97
2018-02-06T06:45:24.869Z,77.91
2018-02-06T06:47:52.321Z,79.50
2018-02-06T06:50:19.785Z,77.53
2018-02-06T06:52:47.599Z,76.86
2018-02-06T06:55:15.026Z,76.96
2018-02-06T06:57:42.493Z,76.97
2018-02-06T07:00:10.340Z,77.47
2018-02-06T07:02:37.820Z,76.73
2018-02-06T07:05:05.298Z,76.86
2018-02-06T07:07:33.559Z,77.36
2018-02-06T07:10:01.011Z,76.78
2018-02-06T07:12:28.469Z,77.08
2018-02-06T07:14:56.222Z,75.91
2018-02-06T07:17:23.683Z,76.48
2018-02-06T07:19:51.149Z,75.83
2018-02-06T07:22:18.904Z,75.95
2018-02-06T07:24:46.360Z,75.41
2018-02-06T07:27:13.815Z,74.74
2018-02-06T07:29:41.594Z,74.26
2018-02-06T07:32:09.065Z,75.79
2018-02-06T07:34:36.521Z,75.72
2018-02-06T07:37:04.284Z,75.31
2018-02-06T07:39:31.751Z,74.11
2018-02-06T07:41:59.204Z,74.12
2018-02-06T07:44:26.977Z,74.05
2018-02-06T07:46:54.429Z,73.81
2018-02-06T07:49:21.887Z,72.76
2018-02-06T07:51:49.669Z,72.50
2018-02-06T07:54:17.141Z,73.24
2018-02-06T07:56:44.598Z,72.79
2018-02-06T07:59:12.347Z,72.82
2018-02-06T08:01:39.800Z,71.78
2018-02-06T08:04:07.246Z,71.93
2018-02-06T08:06:35.025Z,71.61
2018-02-06T08:09:04.448Z,71.82
2018-02-06T08:11:31.896Z,71.76
2018-02-06T08:13:59.573Z,71.29
2018-02-06T08:16:27.037Z,70.98
2018-02-06T08:18:54.488Z,70.28
2018-02-06T08:21:22.245Z,70.03
2018-02-06T08:23:49.693Z,70.29
2018-02-06T08:26:17.139Z,69.99
2018-02-06T08:28:45.235Z,69.64
2018-02-06T08:31:12.727Z,69.70
2018-02-06T08:33:40.168Z,69.63
2018-02-06T08:36:07.925Z,70.03
2018-02-06T08:38:35.381Z,69.53
2018-02-06T08:41:02.835Z,69.51
2018-02-06T08:43:30.616Z,69.57
2018-02-06T08:45:58.075Z,69.34
2018-02-06T08:48:25.534Z,70.76
2018-02-06T08:50:53.297Z,69.64
2018-02-06T08:53:20.747Z,70.37
2018-02-06T08:55:48.196Z,69.56
2018-02-06T08:58:15.988Z,68.84
2018-02-06T09:00:43.435Z,69.10
2018-02-06T09:03:10.880Z,68.58
2018-02-06T09:05:38.925Z,69.17
2018-02-06T09:08:06.396Z,68.78
2018-02-06T09:10:34.571Z,69.00
2018-02-06T09:13:02.228Z,67.84
2018-02-06T09:15:29.686Z,68.33
2018-02-06T09:17:57.132Z,67.92
2018-02-06T09:20:24.970Z,67.85
2018-02-06T09:22:52.433Z,68.40
2018-02-06T09:25:19.882Z,67.87
2018-02-06T09:27:47.669Z,67.99
2018-02-06T09:30:15.120Z,68.16
2018-02-06T09:32:42.571Z,67.29
2018-02-06T09:35:10.328Z,67.35
2018-02-06T09:37:37.780Z,68.25
2018-02-06T09:40:05.244Z,68.01
2018-02-06T09:42:33.025Z,67.87
2018-02-06T09:45:00.484Z,67.36
2018-02-06T09:47:27.930Z,66.05
2018-02-06T09:49:56.021Z,67.61
2018-02-06T09:52:23.468Z,65.71
2018-02-06T09:54:50.927Z,66.77
2018-02-06T09:57:18.708Z,66.16
2018-02-06T09:59:46.156Z,65.43
2018-02-06T10:02:13.610Z,65.74
2018-02-06T10:04:41.400Z,66.31
2018-02-06T10:07:08.849Z,66.70
2018-02-06T10:09:36.334Z,65.43
2018-02-06T10:12:05.064Z,64.28
2018-02-06T10:14:32.541Z,63.54
2018-02-06T10:16:59.999Z,64.06
2018-02-06T10:19:27.763Z,63.68
2018-02-06T10:21:55.217Z,64.17
2018-02-06T10:24:22.664Z,63.29
2018-02-06T10:26:50.385Z,63.08
2018-02-06T10:29:17.846Z,64.50
2018-02-06T10:31:45.296Z,63.86
2018-02-06T10:34:13.072Z,63.90
2018-02-06T10:36:40.520Z,63.82
2018-02-06T10:39:07.971Z,62.13
2018-02-06T10:41:36.057Z,63.51
2018-02-06T10:44:03.504Z,63.37
2018-02-06T10:46:30.952Z,62.03
2018-02-06T10:48:58.760Z,62.18
2018-02-06T10:51:26.212Z,61.52
2018-02-06T10:53:53.672Z,62.89
2018-02-06T10:56:21.436Z,61.83
2018-02-06T10:58:48.885Z,62.55
2018-02-06T11:01:16.336Z,60.86
2018-02-06T11:03:44.426Z,62.64
2018-02-06T11:06:11.886Z,60.44
2018-02-06T11:08:39.333Z,59.51
2018-02-06T11:11:07.116Z,58.33
2018-02-06T11:13:34.952Z,57.25
2018-02-06T11:16:02.404Z,55.55
2018-02-06T11:18:30.072Z,53.96
2018-02-06T11:20:57.528Z,55.31
2018-02-06T11:23:24.985Z,56.62
2018-02-06T11:25:52.805Z,55.59
2018-02-06T11:28:20.259Z,56.56
2018-02-06T11:30:47.709Z,53.25
2018-02-06T11:33:15.495Z,49.76
2018-02-06T11:35:42.949Z,51.19
2018-02-06T11:38:10.419Z,52.33
2018-02-06T11:40:38.175Z,51.79
2018-02-06T11:43:05.628Z,51.09
2018-02-06T11:45:33.098Z,50.32
2018-02-06T11:48:01.160Z,53.45
2018-02-06T11:50:28.636Z,49.79
2018-02-06T11:52:56.156Z,51.16
2018-02-06T11:55:24.178Z,48.35
2018-02-06T11:57:51.630Z,47.93
2018-02-06T12:00:19.083Z,48.62
2018-02-06T12:02:46.848Z,48.41
2018-02-06T12:05:14.294Z,49.32
2018-02-06T12:07:41.740Z,50.00
2018-02-06T12:10:09.835Z,46.81
2018-02-06T12:12:37.285Z,49.06
2018-02-06T12:15:05.935Z,52.54
2018-02-06T12:17:33.793Z,49.84
2018-02-06T12:20:01.263Z,49.63
2018-02-06T12:22:28.720Z,49.06
2018-02-06T12:24:57.068Z,50.05
2018-02-06T12:27:24.524Z,51.68
2018-02-06T12:29:51.973Z,52.01
2018-02-06T12:32:19.748Z,50.88
2018-02-06T12:34:47.196Z,51.51
2018-02-06T12:37:14.647Z,52.16
2018-02-06T12:39:42.457Z,53.69
2018-02-06T12:42:09.898Z,50.73
2018-02-06T12:44:37.364Z,54.31
2018-02-06T12:47:06.032Z,51.29
2018-02-06T12:49:33.477Z,51.74
2018-02-06T12:52:00.924Z,50.60
2018-02-06T12:54:28.733Z,50.46
2018-02-06T12:56:56.201Z,49.13
2018-02-06T12:59:23.680Z,48.03
2018-02-06T13:01:51.404Z,47.46
2018-02-06T13:04:18.854Z,51.37
2018-02-06T13:06:46.311Z,46.25
2018-02-06T13:09:15.324Z,48.73
2018-02-06T13:11:42.773Z,47.68
2018-02-06T13:14:10.232Z,45.18
2018-02-06T13:16:38.632Z,47.62
2018-02-06T13:19:06.092Z,47.76
2018-02-06T13:21:33.545Z,47.73
2018-02-06T13:24:01.637Z,49.95
2018-02-06T13:26:29.089Z,47.23
2018-02-06T13:28:56.541Z,49.02
2018-02-06T13:31:24.321Z,44.96
2018-02-06T13:33:51.786Z,45.50
2018-02-06T13:36:19.266Z,45.58
2018-02-06T13:38:46.991Z,46.67
2018-02-06T13:41:14.444Z,48.38
2018-02-06T13:43:41.906Z,49.08
2018-02-06T13:46:09.685Z,47.03
2018-02-06T13:48:37.144Z,46.71
2018-02-06T13:51:04.597Z,44.73
2018-02-06T13:53:32.374Z,44.85
2018-02-06T13:55:59.824Z,47.38
2018-02-06T13:58:27.320Z,47.44
2018-02-06T14:00:55.056Z,46.63
2018-02-06T14:03:22.501Z,47.58
2018-02-06T14:05:49.956Z,50.91
2018-02-06T14:08:17.752Z,46.18
2018-02-06T14:10:45.200Z,45.70
2018-02-06T14:13:12.652Z,47.16
2018-02-06T14:15:40.254Z,50.89
2018-02-06T14:18:08.263Z,51.22
2018-02-06T14:20:35.726Z,51.44
2018-02-06T14:23:05.089Z,52.47
2018-02-06T14:25:32.533Z,51.30
2018-02-06T14:27:59.998Z,51.91
2018-02-06T14:30:27.662Z,51.21
2018-02-06T14:32:55.122Z,51.71
2018-02-06T14:35:22.576Z,53.02
2018-02-06T14:37:50.346Z,52.30
2018-02-06T14:40:17.805Z,54.25
2018-02-06T14:42:45.252Z,53.55
2018-02-06T14:45:13.033Z,54.44
2018-02-06T14:47:40.492Z,54.78
2018-02-06T14:50:07.949Z,56.28
2018-02-06T14:52:36.324Z,59.63
2018-02-06T14:55:03.778Z,59.14
2018-02-06T14:57:31.251Z,59.59
2018-02-06T14:59:58.925Z,60.59
2018-02-06T15:02:26.383Z,61.39
2018-02-06T15:04:53.841Z,62.10
2018-02-06T15:07:21.609Z,61.62
2018-02-06T15:09:49.070Z,62.67
2018-02-06T15:12:16.521Z,63.06
2018-02-06T15:14:44.398Z,63.59
2018-02-06T15:17:11.859Z,64.34
2018-02-06T15:19:39.692Z,64.39
2018-02-06T15:22:07.693Z,66.09
2018-02-06T15:24:35.153Z,64.89
2018-02-06T15:27:02.604Z,65.50
2018-02-06T15:29:30.376Z,66.42
2018-02-06T15:31:57.820Z,67.41
2018-02-06T15:34:25.270Z,66.34
2018-02-06T15:36:53.066Z,66.74
2018-02-06T15:39:20.518Z,67.20
2018-02-06T15:41:47.965Z,67.45
2018-02-06T15:44:16.056Z,66.45
2018-02-06T15:46:43.508Z,67.19
2018-02-06T15:49:10.958Z,67.50
2018-02-06T15:51:38.594Z,68.06
2018-02-06T15:54:06.060Z,68.28
2018-02-06T15:56:33.520Z,70.00
2018-02-06T15:59:01.445Z,70.69
2018-02-06T16:01:28.899Z,70.49
2018-02-06T16:03:56.366Z,71.20
2018-02-06T16:06:24.121Z,71.49
2018-02-06T16:08:51.570Z,71.95
2018-02-06T16:11:19.031Z,72.19
2018-02-06T16:13:46.806Z,71.91
2018-02-06T16:16:14.251Z,72.20
2018-02-06T16:18:41.700Z,73.40
2018-02-06T16:21:09.936Z,73.46
2018-02-06T16:23:37.489Z,73.99
2018-02-06T16:26:04.949Z,73.84
2018-02-06T16:28:34.040Z,74.50
2018-02-06T16:31:01.500Z,74.62
2018-02-06T16:33:28.954Z,74.74
2018-02-06T16:35:57.037Z,75.41
2018-02-06T16:38:24.491Z,74.63
2018-02-06T16:40:51.947Z,75.60
2018-02-06T16:43:20.009Z,76.03
2018-02-06T16:45:47.469Z,75.81
2018-02-06T16:48:14.995Z,75.63
2018-02-06T16:50:42.714Z,76.94
2018-02-06T16:53:11.202Z,77.00
2018-02-06T16:55:38.644Z,77.99
2018-02-06T16:58:06.611Z,78.20
2018-02-06T17:00:34.064Z,78.40
2018-02-06T17:03:01.509Z,78.52
2018-02-06T17:05:29.604Z,79.32
2018-02-06T17:07:57.051Z,79.10
2018-02-06T17:10:24.509Z,79.46
2018-02-06T17:12:52.306Z,79.44
2018-02-06T17:15:19.765Z,79.51
2018-02-06T17:17:47.257Z,80.21
2018-02-06T17:20:15.597Z,80.32
2018-02-06T17:22:43.755Z,80.99
2018-02-06T17:25:11.216Z,81.39
2018-02-06T17:27:38.893Z,81.77
2018-02-06T17:30:06.347Z,82.18
2018-02-06T17:32:33.803Z,82.56
2018-02-06T17:35:02.275Z,82.73
2018-02-06T17:37:31.190Z,83.09
2018-02-06T17:39:59.601Z,83.86
2018-02-06T17:42:28.483Z,83.46
2018-02-06T17:44:56.414Z,84.21
2018-02-06T17:47:24.309Z,83.86
2018-02-06T17:49:53.973Z,84.10
2018-02-06T17:52:21.540Z,84.47
2018-02-06T17:54:49.856Z,84.09
2018-02-06T17:57:17.964Z,83.68
2018-02-06T17:59:45.911Z,82.92
2018-02-06T18:02:13.872Z,82.73
2018-02-06T18:04:42.280Z,82.23
2018-02-06T18:07:10.296Z,82.31
2018-02-06T18:09:38.576Z,81.67
2018-02-06T18:12:06.911Z,81.46
2018-02-06T18:14:34.382Z,81.51
2018-02-06T18:17:01.829Z,81.29
2018-02-06T18:19:29.688Z,81.62
2018-02-06T18:21:57.144Z,81.93
2018-02-06T18:24:24.988Z,82.09
2018-02-06T18:26:52.709Z,82.07
2018-02-06T18:29:20.162Z,82.42
2018-02-06T18:31:47.649Z,82.25
2018-02-06T18:34:15.377Z,82.12
2018-02-06T18:36:43.146Z,81.87
2018-02-06T18:39:10.601Z,82.32
2018-02-06T18:41:38.049Z,81.66
2018-02-06T18:44:05.835Z,82.14
2018-02-06T18:46:33.292Z,81.96
2018-02-06T18:49:00.751Z,82.44
2018-02-06T18:51:28.812Z,82.31
2018-02-06T18:53:56.273Z,82.51
2018-02-06T18:56:23.724Z,82.18
2018-02-06T18:58:51.516Z,85.82
2018-02-06T19:01:18.979Z,83.09
2018-02-06T19:03:46.442Z,82.78
2018-02-06T19:06:14.197Z,83.21
2018-02-06T19:08:41.648Z,82.91
2018-02-06T19:11:09.096Z,83.19
2018-02-06T19:13:36.884Z,84.09
2018-02-06T19:16:04.361Z,83.67
2018-02-06T19:18:31.820Z,83.53
2018-02-06T19:20:59.581Z,83.83
2018-02-06T19:23:27.956Z,84.18
2018-02-06T19:25:59.330Z,84.90
2018-02-06T19:28:27.848Z,84.40
2018-02-06T19:30:56.926Z,85.23
2018-02-06T19:33:25.770Z,85.62
2018-02-06T19:35:55.559Z,85.47
2018-02-06T19:38:23.994Z,85.46
2018-02-06T19:40:53.516Z,86.27
2018-02-06T19:43:23.440Z,86.18
2018-02-06T19:45:52.794Z,85.77
2018-02-06T19:48:20.342Z,85.79
2018-02-06T19:50:48.051Z,86.82
2018-02-06T19:53:15.500Z,86.44
2018-02-06T19:55:42.948Z,86.16
2018-02-06T19:58:10.576Z,86.05
2018-02-06T20:00:38.046Z,86.54
2018-02-06T20:03:05.561Z,86.38
2018-02-06T20:05:33.200Z,86.68
2018-02-06T20:08:01.074Z,87.06
2018-02-06T20:10:30.632Z,86.83
2018-02-06T20:12:59.763Z,86.49
2018-02-06T20:15:27.313Z,86.48
2018-02-06T20:17:56.073Z,86.98
2018-02-06T20:20:25.740Z,87.75
2018-02-06T20:22:53.865Z,87.62
2018-02-06T20:25:21.922Z,90.91
2018-02-06T20:27:50.185Z,87.54
2018-02-06T20:30:17.649Z,87.51
2018-02-06T20:32:45.581Z,87.36
2018-02-06T20:35:14.016Z,87.34
2018-02-06T20:37:41.483Z,87.60
2018-02-06T20:40:08.936Z,87.73
2018-02-06T20:42:36.756Z,87.74
2018-02-06T20:45:05.131Z,87.87
2018-02-06T20:47:32.632Z,88.03
2018-02-06T20:50:00.401Z,87.76
2018-02-06T20:52:27.860Z,88.51
2018-02-06T20:54:55.307Z,88.69
2018-02-06T20:57:23.070Z,88.45
2018-02-06T20:59:51.714Z,88.27
2018-02-06T21:02:19.189Z,88.43
2018-02-06T21:04:46.997Z,88.54
2018-02-06T21:07:14.453Z,89.04
2018-02-06T21:09:42.031Z,88.89
2018-02-06T21:12:09.995Z,89.19
2018-02-06T21:14:38.883Z,89.15
2018-02-06T21:17:06.355Z,88.86
2018-02-06T21:19:34.204Z,89.25
2018-02-06T21:22:01.663Z,89.66
2018-02-06T21:24:29.113Z,90.37
2018-02-06T21:26:57.201Z,90.59
2018-02-06T21:29:26.368Z,91.31
2018-02-06T21:31:53.822Z,91.18
2018-02-06T21:34:21.809Z,90.88
2018-02-06T21:36:49.273Z,91.90
2018-02-06T21:39:16.716Z,92.24
2018-02-06T21:41:44.420Z,92.65
2018-02-06T21:44:11.868Z,93.33
2018-02-06T21:46:39.416Z,92.93
2018-02-06T21:49:07.368Z,93.32
2018-02-06T21:51:34.830Z,93.50
2018-02-06T21:54:02.293Z,93.85
2018-02-06T21:56:30.417Z,93.77
2018-02-06T21:58:57.876Z,93.39
2018-02-06T22:01:25.375Z,93.16
2018-02-06T22:03:53.104Z,93.69
2018-02-06T22:06:20.562Z,94.29
2018-02-06T22:08:48.022Z,93.85
2018-02-06T22:11:15.770Z,93.91
2018-02-06T22:13:43.226Z,93.82
2018-02-06T22:16:10.683Z,93.60
2018-02-06T22:18:38.469Z,93.78
2018-02-06T22:21:05.939Z,94.26
2018-02-06T22:23:33.405Z,94.64
2018-02-06T22:26:01.173Z,94.81
2018-02-06T22:28:28.688Z,94.41
2018-02-06T22:30:56.765Z,94.65
2018-02-06T22:33:24.543Z,94.76
2018-02-06T22:35:52.004Z,94.32
2018-02-06T22:38:19.460Z,94.38
2018-02-06T22:40:47.451Z,95.12
2018-02-06T22:43:14.925Z,95.21
2018-02-06T22:45:42.379Z,96.02
2018-02-06T22:48:10.149Z,96.34
2018-02-06T22:50:37.609Z,96.59
2018-02-06T22:53:05.097Z,96.73
2018-02-06T22:55:32.849Z,96.68
2018-02-06T22:58:00.296Z,96.47
2018-02-06T23:00:27.756Z,95.70
2018-02-06T23:02:55.527Z,96.26
2018-02-06T23:05:22.985Z,96.72
2018-02-06T23:07:50.450Z,96.57
2018-02-06T23:10:18.196Z,96.25
2018-02-06T23:12:45.644Z,96.38
2018-02-06T23:15:13.105Z,96.44
2018-02-06T23:17:40.885Z,95.80
2018-02-06T23:20:08.344Z,94.85
2018-02-06T23:22:36.021Z,94.53
2018-02-06T23:25:03.864Z,93.87
2018-02-06T23:27:31.317Z,93.38
2018-02-06T23:29:58.764Z,92.84
2018-02-06T23:32:27.194Z,92.80
2018-02-06T23:34:54.648Z,92.31
2018-02-06T23:37:22.108Z,91.75
2018-02-06T23:39:49.871Z,91.95
2018-02-06T23:42:17.376Z,91.49
2018-02-06T23:44:44.839Z,92.14
2018-02-06T23:47:12.565Z,92.26
2018-02-06T23:49:40.020Z,91.91
2018-02-06T23:52:07.467Z,91.65
2018-02-06T23:54:35.548Z,91.56
2018-02-06T23:57:02.996Z,92.12
2018-02-06T23:59:30.446Z,92.14
